Hunters Run, Pennsylvania
Current Conditions -  °F | °C
As of 6:53 AM on Friday 21 Nov 2014 (Local Time) from KTHV Reporting Station
Overcast Overcast  
Wind Chill: 19°   Ceiling: 5500
Heat Index: 25°   Visibility: 10mi
Dew Point: 10°   Wind: 5mph
Humidity: 53%   Direction: 290°WNW
Pressure: 30.29"   Gusts: NA
Location:  40.0362°N, 77.1908°W
Report Text: KTHV 211153Z AUTO 29004KT 10SM OVC055 M04/M12 A3029 RMK AO2 SLP266 T10391122 11028 21072 53035
Loading
Personal Weather Stations






























Interactive Weather Map New forecast layout! Learn more

10-Day Weather Forecast

Advertisements
Track Severe Weather on mobile